KTVLKJAC

Guest
Details From KTVL - South Lake Tahoe
To KJAC - Jackson Hole
Flight Number -
Tags decoded
Created
Modified
Stats Distance 520 nm / 962 km
Max Altitude 0 ft / 0 m
Waypoints 5
Social Downloads 1
Likes 0
Share VATSIM

Download

Looking for another format? Having issues loading an existing format? Contact us
Advertisement - Login to hide

Notes

Requested: KTVL FMG LLC BAMMLWL MLD KJAC Unmatched points: BAMMLWL

Route

KTVL FMG LLC MLD KJAC

ID Type Via Altitude Latitude Longitude Leg Dist Tot Dist Heading (true) Name
O KTVL APT - 0 ft / 0 m 38.89388˚ -119.99533˚ - 0 nm - South Lake Tahoe
FMG VOR - 0 ft / 0 m 39.53128˚ -119.65608˚ 41 nm 41 nm 22° / 23° MUSTANG VORTAC
LLC VOR - 0 ft / 0 m 40.12525˚ -118.57758˚ 61 nm 102 nm 54° / 55° LOVELOCK VORTAC
MLD VOR - 0 ft / 0 m 42.19989˚ -112.45122˚ 303 nm 406 nm 64° / 68° MALAD CITY VOR-DME
O KJAC APT - 0 ft / 0 m 43.60735˚ -110.73774˚ 113 nm 519 nm 41° / 42° Jackson Hole

Altitude Profile

Advertisement - Login to hide

Weather


0- 5 10 15 20 25 30 35+ Temperature / ° C

Clouds and Precipitation
Forecast for 2017-12-15 12:00 UTC. Updated an hour ago

Ground ~20,000 ft ~40,000 ft Winds

KTVL

Details ICAO KTVL (TVL)
Name South Lake Tahoe
Region United States
Timezone America/Los_Angeles (UTC-8.0)
Stats Elevation 6,264 ft / 1,909 m (AMSL)
Location 38.893882° -119.995335°
Runways 1
Magnetic Variation 13.320° E

METAR

KTVL 150953Z AUTO 20003KT 10SM CLR M06/M08 A3036 RMK AO2 SLP272 T10611083

Decode

TAF

TAF KTVL 150520Z 1506/1606 VRB04KT P6SM SCT250 FM151900 19007KT P6SM BKN200

Decode

Departure Runways

ID Width Length Bearing (true) Bearing (mag) Surface Threshold Offset Overrun Length
18 150 ft / 46 m 8,556 ft / 2,608 m 192.88° 179.56° Asphalt 0 ft / 0 m 0 ft / 0 m
36 150 ft / 46 m 8,556 ft / 2,608 m 12.88° 359.56° Asphalt 2,037 ft / 621 m 0 ft / 0 m

KJAC

Details ICAO KJAC (JAC)
Name Jackson Hole
Region United States
Timezone America/Denver (UTC-7.0)
Stats Elevation 6,451 ft / 1,966 m (AMSL)
Location 43.607352° -110.737742°
Runways 1
Magnetic Variation 11.397° E

METAR

KJAC 151033Z AUTO 05003KT 10SM BKN007 M12/M14 A3033 RMK AO2 FZRANO

Decode

TAF

KJAC 150539Z 1506/1606 02006KT P6SM SCT200 FM150800 36006KT P6SM VCFG FEW003 SCT010 FM151700 18006KT P6SM FEW010 FM160200 21007KT P6SM BKN060 WS018/24025KT AMD LTD TO CLD VIS AND WIND

Decode

Destination Runways

ID Width Length Bearing (true) Bearing (mag) Surface Threshold Offset Overrun Length
01 151 ft / 46 m 6,285 ft / 1,916 m 19.50° 8.10° Asphalt 0 ft / 0 m 308 ft / 94 m
19 151 ft / 46 m 6,285 ft / 1,916 m 199.50° 188.10° Asphalt 0 ft / 0 m 305 ft / 93 m

Approach Navaids

Runway Type Ident Frequency Range Bearing (true) Bearing (mag) Slope Elevation
19 Localiser IJAC 109.10 MHz 18 nm / 33 km 199.36° 187.96° - 6,408 ft / 1,953 m (AMSL)
19 Glidescope IJAC 109.10 MHz 10 nm / 19 km 199.36° 187.96° 3.00° 6,441 ft / 1,963 m (AMSL)
19 DME IJAC 109.10 MHz 18 nm / 33 km - - - 6,415 ft / 1,955 m (AMSL)

Popular Alternatives